sensor_id;sensor_type;location;lat;lon;timestamp;pressure;altitude;pressure_sealevel;temperature;humidity
77770;BME280;66961;51.482;9.160;2023-05-21T00:00:33;99544.38;;;10.93;82.84
77770;BME280;66961;51.482;9.160;2023-05-21T00:02:58;99538.81;;;10.88;82.69
77770;BME280;66961;51.482;9.160;2023-05-21T00:05:23;99546.94;;;10.86;82.57
77770;BME280;66961;51.482;9.160;2023-05-21T00:07:49;99544.59;;;10.83;83.19
77770;BME280;66961;51.482;9.160;2023-05-21T00:10:14;99538.00;;;10.79;83.10
77770;BME280;66961;51.482;9.160;2023-05-21T00:12:39;99540.97;;;10.76;83.32
77770;BME280;66961;51.482;9.160;2023-05-21T00:15:05;99527.56;;;10.70;83.37
77770;BME280;66961;51.482;9.160;2023-05-21T00:17:30;99528.72;;;10.67;83.37
77770;BME280;66961;51.482;9.160;2023-05-21T00:19:56;99528.75;;;10.59;83.02
77770;BME280;66961;51.482;9.160;2023-05-21T00:22:21;99529.75;;;10.58;83.37
77770;BME280;66961;51.482;9.160;2023-05-21T00:24:47;99529.91;;;10.56;83.04
77770;BME280;66961;51.482;9.160;2023-05-21T00:27:12;99524.63;;;10.48;83.60
77770;BME280;66961;51.482;9.160;2023-05-21T00:29:38;99518.00;;;10.44;83.62
77770;BME280;66961;51.482;9.160;2023-05-21T00:32:03;99520.53;;;10.38;83.68
77770;BME280;66961;51.482;9.160;2023-05-21T00:34:29;99512.06;;;10.34;83.60
77770;BME280;66961;51.482;9.160;2023-05-21T00:36:54;99507.63;;;10.26;84.43
77770;BME280;66961;51.482;9.160;2023-05-21T00:39:20;99504.81;;;10.20;84.13
77770;BME280;66961;51.482;9.160;2023-05-21T00:41:45;99506.28;;;10.22;84.07
77770;BME280;66961;51.482;9.160;2023-05-21T00:44:11;99508.09;;;10.22;83.94
77770;BME280;66961;51.482;9.160;2023-05-21T00:46:36;99502.78;;;10.14;84.88
77770;BME280;66961;51.482;9.160;2023-05-21T00:49:01;99495.66;;;10.14;84.52
77770;BME280;66961;51.482;9.160;2023-05-21T00:51:27;99490.69;;;10.11;84.99
77770;BME280;66961;51.482;9.160;2023-05-21T00:53:53;99494.03;;;10.21;86.19
77770;BME280;66961;51.482;9.160;2023-05-21T00:56:19;99498.84;;;10.26;85.53
77770;BME280;66961;51.482;9.160;2023-05-21T00:58:44;99496.03;;;10.27;85.43
77770;BME280;66961;51.482;9.160;2023-05-21T01:01:11;99489.72;;;10.20;84.54
77770;BME280;66961;51.482;9.160;2023-05-21T01:03:36;99490.53;;;10.13;84.29
77770;BME280;66961;51.482;9.160;2023-05-21T01:06:01;99486.72;;;10.07;84.38
77770;BME280;66961;51.482;9.160;2023-05-21T01:08:28;99483.09;;;10.08;85.03
77770;BME280;66961;51.482;9.160;2023-05-21T01:10:54;99484.75;;;10.01;84.35
77770;BME280;66961;51.482;9.160;2023-05-21T01:13:20;99467.06;;;9.85;84.78
77770;BME280;66961;51.482;9.160;2023-05-21T01:15:48;99471.66;;;9.91;85.57
77770;BME280;66961;51.482;9.160;2023-05-21T01:18:14;99472.19;;;9.87;85.56
77770;BME280;66961;51.482;9.160;2023-05-21T01:20:39;99481.28;;;9.84;85.39
77770;BME280;66961;51.482;9.160;2023-05-21T01:23:05;99487.75;;;9.82;85.84
77770;BME280;66961;51.482;9.160;2023-05-21T01:25:30;99484.09;;;9.75;85.56
77770;BME280;66961;51.482;9.160;2023-05-21T01:27:55;99473.16;;;9.70;85.88
77770;BME280;66961;51.482;9.160;2023-05-21T01:30:22;99471.00;;;9.65;85.96
77770;BME280;66961;51.482;9.160;2023-05-21T01:32:54;99469.69;;;9.61;86.61
77770;BME280;66961;51.482;9.160;2023-05-21T01:35:25;99471.81;;;9.57;86.06
77770;BME280;66961;51.482;9.160;2023-05-21T01:37:56;99477.44;;;9.54;86.38
77770;BME280;66961;51.482;9.160;2023-05-21T01:43:04;99476.59;;;9.46;85.80
77770;BME280;66961;51.482;9.160;2023-05-21T01:45:30;99478.41;;;9.45;86.35
77770;BME280;66961;51.482;9.160;2023-05-21T01:47:56;99465.34;;;9.44;86.50
77770;BME280;66961;51.482;9.160;2023-05-21T01:50:23;99470.81;;;9.42;86.67
77770;BME280;66961;51.482;9.160;2023-05-21T01:52:50;99464.69;;;9.42;86.23
77770;BME280;66961;51.482;9.160;2023-05-21T01:55:17;99456.75;;;9.42;86.90
77770;BME280;66961;51.482;9.160;2023-05-21T01:57:43;99464.53;;;9.43;86.91
77770;BME280;66961;51.482;9.160;2023-05-21T02:00:09;99463.53;;;9.44;86.68
77770;BME280;66961;51.482;9.160;2023-05-21T02:02:34;99466.50;;;9.49;87.04
77770;BME280;66961;51.482;9.160;2023-05-21T02:04:59;99458.75;;;9.56;87.03
77770;BME280;66961;51.482;9.160;2023-05-21T02:07:25;99460.25;;;9.58;86.92
77770;BME280;66961;51.482;9.160;2023-05-21T02:09:50;99464.72;;;9.58;86.72
77770;BME280;66961;51.482;9.160;2023-05-21T02:12:15;99462.41;;;9.63;87.72
77770;BME280;66961;51.482;9.160;2023-05-21T02:14:40;99461.75;;;9.69;87.93
77770;BME280;66961;51.482;9.160;2023-05-21T02:17:06;99461.75;;;9.69;87.45
77770;BME280;66961;51.482;9.160;2023-05-21T02:19:31;99454.97;;;9.67;86.53
77770;BME280;66961;51.482;9.160;2023-05-21T02:21:56;99454.31;;;9.65;86.74
77770;BME280;66961;51.482;9.160;2023-05-21T02:24:21;99459.25;;;9.59;86.09
77770;BME280;66961;51.482;9.160;2023-05-21T02:26:47;99456.94;;;9.56;86.27
77770;BME280;66961;51.482;9.160;2023-05-21T02:29:12;99458.91;;;9.54;86.52
77770;BME280;66961;51.482;9.160;2023-05-21T02:31:37;99460.91;;;9.52;86.35
77770;BME280;66961;51.482;9.160;2023-05-21T02:34:02;99457.75;;;9.49;86.21
77770;BME280;66961;51.482;9.160;2023-05-21T02:36:28;99457.41;;;9.44;86.06
77770;BME280;66961;51.482;9.160;2023-05-21T02:38:53;99457.06;;;9.39;86.35
77770;BME280;66961;51.482;9.160;2023-05-21T02:41:19;99466.34;;;9.35;86.11
77770;BME280;66961;51.482;9.160;2023-05-21T02:43:45;99462.03;;;9.42;88.05
77770;BME280;66961;51.482;9.160;2023-05-21T02:46:10;99458.41;;;9.43;87.31
77770;BME280;66961;51.482;9.160;2023-05-21T02:48:35;99458.56;;;9.41;87.76
77770;BME280;66961;51.482;9.160;2023-05-21T02:51:01;99456.75;;;9.42;87.36
77770;BME280;66961;51.482;9.160;2023-05-21T02:53:26;99451.31;;;9.35;86.27
77770;BME280;66961;51.482;9.160;2023-05-21T02:55:51;99449.16;;;9.31;86.28
77770;BME280;66961;51.482;9.160;2023-05-21T02:58:16;99445.50;;;9.23;86.38
77770;BME280;66961;51.482;9.160;2023-05-21T03:00:42;99452.91;;;9.20;87.16
77770;BME280;66961;51.482;9.160;2023-05-21T03:03:07;99453.06;;;9.18;87.37
77770;BME280;66961;51.482;9.160;2023-05-21T03:05:32;99445.78;;;9.12;87.37
77770;BME280;66961;51.482;9.160;2023-05-21T03:07:57;99455.53;;;9.12;86.66
77770;BME280;66961;51.482;9.160;2023-05-21T03:10:23;99448.91;;;9.08;87.01
77770;BME280;66961;51.482;9.160;2023-05-21T03:12:48;99447.75;;;9.10;86.63
77770;BME280;66961;51.482;9.160;2023-05-21T03:15:13;99452.56;;;9.15;87.25
77770;BME280;66961;51.482;9.160;2023-05-21T03:17:39;99449.78;;;9.16;86.60
77770;BME280;66961;51.482;9.160;2023-05-21T03:20:05;99448.78;;;9.17;86.69
77770;BME280;66961;51.482;9.160;2023-05-21T03:22:30;99452.41;;;9.16;87.02
77770;BME280;66961;51.482;9.160;2023-05-21T03:24:56;99442.81;;;9.15;86.96
77770;BME280;66961;51.482;9.160;2023-05-21T03:27:21;99447.16;;;9.24;86.94
77770;BME280;66961;51.482;9.160;2023-05-21T03:29:46;99446.00;;;9.27;86.68
77770;BME280;66961;51.482;9.160;2023-05-21T03:32:12;99449.50;;;9.36;87.14
77770;BME280;66961;51.482;9.160;2023-05-21T03:34:37;99444.84;;;9.38;86.57
77770;BME280;66961;51.482;9.160;2023-05-21T03:37:03;99441.34;;;9.37;86.63
77770;BME280;66961;51.482;9.160;2023-05-21T03:39:28;99452.44;;;9.41;86.84
77770;BME280;66961;51.482;9.160;2023-05-21T03:41:53;99443.84;;;9.47;87.13
77770;BME280;66961;51.482;9.160;2023-05-21T03:44:18;99446.84;;;9.52;87.16
77770;BME280;66961;51.482;9.160;2023-05-21T03:46:44;99442.88;;;9.56;86.85
77770;BME280;66961;51.482;9.160;2023-05-21T03:49:09;99448.69;;;9.59;87.04
77770;BME280;66961;51.482;9.160;2023-05-21T03:51:34;99448.69;;;9.59;86.64
77770;BME280;66961;51.482;9.160;2023-05-21T03:53:59;99449.34;;;9.61;87.15
77770;BME280;66961;51.482;9.160;2023-05-21T03:56:25;99449.66;;;9.58;86.40
77770;BME280;66961;51.482;9.160;2023-05-21T03:58:50;99445.69;;;9.46;84.43
77770;BME280;66961;51.482;9.160;2023-05-21T04:01:15;99450.47;;;9.51;84.09
77770;BME280;66961;51.482;9.160;2023-05-21T04:03:40;99446.34;;;9.48;84.92
77770;BME280;66961;51.482;9.160;2023-05-21T04:06:06;99452.28;;;9.50;85.27
77770;BME280;66961;51.482;9.160;2023-05-21T04:08:31;99447.19;;;9.57;84.94
77770;BME280;66961;51.482;9.160;2023-05-21T04:10:56;99453.47;;;9.64;85.45
77770;BME280;66961;51.482;9.160;2023-05-21T04:13:22;99457.63;;;9.75;85.09
77770;BME280;66961;51.482;9.160;2023-05-21T04:15:47;99461.09;;;9.83;85.68
77770;BME280;66961;51.482;9.160;2023-05-21T04:18:12;99461.06;;;9.91;85.01
77770;BME280;66961;51.482;9.160;2023-05-21T04:20:38;99457.59;;;9.99;85.42
77770;BME280;66961;51.482;9.160;2023-05-21T04:23:03;99440.06;;;9.98;85.44
77770;BME280;66961;51.482;9.160;2023-05-21T04:25:29;99459.59;;;10.13;85.39
77770;BME280;66961;51.482;9.160;2023-05-21T04:27:54;99447.66;;;10.17;84.81
77770;BME280;66961;51.482;9.160;2023-05-21T04:30:19;99453.16;;;10.24;85.11
77770;BME280;66961;51.482;9.160;2023-05-21T04:32:45;99460.75;;;10.27;85.39
77770;BME280;66961;51.482;9.160;2023-05-21T04:35:10;99457.59;;;10.32;84.85
77770;BME280;66961;51.482;9.160;2023-05-21T04:37:36;99457.94;;;10.37;83.78
77770;BME280;66961;51.482;9.160;2023-05-21T04:40:01;99457.41;;;10.41;83.37
77770;BME280;66961;51.482;9.160;2023-05-21T04:42:26;99456.56;;;10.49;83.62
77770;BME280;66961;51.482;9.160;2023-05-21T04:44:51;99455.53;;;10.58;83.82
77770;BME280;66961;51.482;9.160;2023-05-21T04:47:17;99451.88;;;10.67;83.34
77770;BME280;66961;51.482;9.160;2023-05-21T04:49:42;99456.97;;;10.77;83.92
77770;BME280;66961;51.482;9.160;2023-05-21T04:52:08;99453.13;;;10.87;83.35
77770;BME280;66961;51.482;9.160;2023-05-21T04:54:33;99452.22;;;10.95;83.38
77770;BME280;66961;51.482;9.160;2023-05-21T04:56:58;99452.34;;;11.10;83.30
77770;BME280;66961;51.482;9.160;2023-05-21T04:59:24;99451.94;;;11.21;82.83
77770;BME280;66961;51.482;9.160;2023-05-21T05:01:49;99451.38;;;11.34;83.23
77770;BME280;66961;51.482;9.160;2023-05-21T05:04:14;99444.19;;;11.42;82.73
77770;BME280;66961;51.482;9.160;2023-05-21T05:06:40;99443.28;;;11.50;82.77
77770;BME280;66961;51.482;9.160;2023-05-21T05:09:05;99442.25;;;11.59;82.30
77770;BME280;66961;51.482;9.160;2023-05-21T05:11:30;99444.38;;;11.64;82.20
77770;BME280;66961;51.482;9.160;2023-05-21T05:13:55;99451.28;;;11.73;81.81
77770;BME280;66961;51.482;9.160;2023-05-21T05:16:21;99446.78;;;11.73;81.42
77770;BME280;66961;51.482;9.160;2023-05-21T05:18:46;99442.81;;;11.77;82.15
77770;BME280;66961;51.482;9.160;2023-05-21T05:21:12;99442.56;;;11.87;81.20
77770;BME280;66961;51.482;9.160;2023-05-21T05:23:37;99438.00;;;11.96;81.43
77770;BME280;66961;51.482;9.160;2023-05-21T05:26:02;99436.09;;;12.04;81.17
77770;BME280;66961;51.482;9.160;2023-05-21T05:28:27;99435.38;;;12.10;80.94
77770;BME280;66961;51.482;9.160;2023-05-21T05:30:53;99433.91;;;12.22;80.78
77770;BME280;66961;51.482;9.160;2023-05-21T05:33:18;99428.53;;;12.31;79.54
77770;BME280;66961;51.482;9.160;2023-05-21T05:35:43;99429.28;;;12.39;79.88
77770;BME280;66961;51.482;9.160;2023-05-21T05:38:09;99425.50;;;12.48;79.06
77770;BME280;66961;51.482;9.160;2023-05-21T05:40:34;99424.22;;;12.59;79.01
77770;BME280;66961;51.482;9.160;2023-05-21T05:42:59;99420.09;;;12.71;78.09
77770;BME280;66961;51.482;9.160;2023-05-21T05:45:25;99426.59;;;12.83;77.94
77770;BME280;66961;51.482;9.160;2023-05-21T05:47:50;99420.06;;;12.86;79.03
77770;BME280;66961;51.482;9.160;2023-05-21T05:50:15;99414.56;;;12.87;79.08
77770;BME280;66961;51.482;9.160;2023-05-21T05:52:40;99434.88;;;13.10;78.71
77770;BME280;66961;51.482;9.160;2023-05-21T05:55:06;99428.47;;;13.19;78.03
77770;BME280;66961;51.482;9.160;2023-05-21T05:57:31;99434.94;;;13.31;78.09
77770;BME280;66961;51.482;9.160;2023-05-21T05:59:56;99430.59;;;13.45;78.20
77770;BME280;66961;51.482;9.160;2023-05-21T06:02:22;99434.94;;;13.52;76.81
77770;BME280;66961;51.482;9.160;2023-05-21T06:04:47;99439.13;;;13.62;76.77
77770;BME280;66961;51.482;9.160;2023-05-21T06:07:12;99435.13;;;13.72;76.09
77770;BME280;66961;51.482;9.160;2023-05-21T06:09:37;99435.97;;;13.73;76.48
77770;BME280;66961;51.482;9.160;2023-05-21T06:12:05;99442.81;;;13.82;75.97
77770;BME280;66961;51.482;9.160;2023-05-21T06:14:30;99444.34;;;13.91;75.98
77770;BME280;66961;51.482;9.160;2023-05-21T06:16:55;99441.75;;;14.04;76.01
77770;BME280;66961;51.482;9.160;2023-05-21T06:19:21;99443.94;;;14.22;75.26
77770;BME280;66961;51.482;9.160;2023-05-21T06:21:46;99449.78;;;14.32;75.04
77770;BME280;66961;51.482;9.160;2023-05-21T06:24:11;99426.13;;;14.22;74.97
77770;BME280;66961;51.482;9.160;2023-05-21T06:26:37;99441.38;;;14.35;75.71
77770;BME280;66961;51.482;9.160;2023-05-21T06:29:02;99438.00;;;14.48;75.04
77770;BME280;66961;51.482;9.160;2023-05-21T06:31:27;99440.09;;;14.52;75.36
77770;BME280;66961;51.482;9.160;2023-05-21T06:33:52;99443.28;;;14.76;74.65
77770;BME280;66961;51.482;9.160;2023-05-21T06:36:18;99445.63;;;14.92;73.88
77770;BME280;66961;51.482;9.160;2023-05-21T06:38:43;99451.59;;;14.94;74.38
77770;BME280;66961;51.482;9.160;2023-05-21T06:41:08;99441.31;;;14.91;73.77
77770;BME280;66961;51.482;9.160;2023-05-21T06:43:33;99426.97;;;14.99;74.04
77770;BME280;66961;51.482;9.160;2023-05-21T06:45:59;99442.41;;;15.16;74.51
77770;BME280;66961;51.482;9.160;2023-05-21T06:48:24;99436.50;;;15.28;74.30
77770;BME280;66961;51.482;9.160;2023-05-21T06:50:49;99438.63;;;15.45;73.89
77770;BME280;66961;51.482;9.160;2023-05-21T06:53:15;99438.25;;;15.62;74.02
77770;BME280;66961;51.482;9.160;2023-05-21T06:55:40;99436.63;;;15.80;73.49
77770;BME280;66961;51.482;9.160;2023-05-21T06:58:05;99442.63;;;15.96;72.64
77770;BME280;66961;51.482;9.160;2023-05-21T07:00:30;99443.66;;;16.01;72.47
77770;BME280;66961;51.482;9.160;2023-05-21T07:02:56;99440.94;;;16.21;71.72
77770;BME280;66961;51.482;9.160;2023-05-21T07:05:21;99437.47;;;15.94;70.79
77770;BME280;66961;51.482;9.160;2023-05-21T07:07:46;99442.41;;;16.10;71.41
77770;BME280;66961;51.482;9.160;2023-05-21T07:10:11;99449.81;;;16.08;71.59
77770;BME280;66961;51.482;9.160;2023-05-21T07:12:37;99447.53;;;16.25;70.79
77770;BME280;66961;51.482;9.160;2023-05-21T07:15:02;99453.69;;;16.32;71.33
77770;BME280;66961;51.482;9.160;2023-05-21T07:17:28;99444.41;;;16.41;70.81
77770;BME280;66961;51.482;9.160;2023-05-21T07:19:53;99440.91;;;16.61;70.68
77770;BME280;66961;51.482;9.160;2023-05-21T07:22:18;99437.59;;;16.59;70.25
77770;BME280;66961;51.482;9.160;2023-05-21T07:24:43;99429.38;;;16.53;70.47
77770;BME280;66961;51.482;9.160;2023-05-21T07:27:09;99437.78;;;16.64;70.05
77770;BME280;66961;51.482;9.160;2023-05-21T07:29:34;99441.28;;;16.71;70.35
77770;BME280;66961;51.482;9.160;2023-05-21T07:31:59;99437.72;;;16.97;68.65
77770;BME280;66961;51.482;9.160;2023-05-21T07:34:25;99432.41;;;17.28;68.24
77770;BME280;66961;51.482;9.160;2023-05-21T07:36:50;99439.44;;;17.23;67.45
77770;BME280;66961;51.482;9.160;2023-05-21T07:39:15;99436.09;;;17.34;67.33
77770;BME280;66961;51.482;9.160;2023-05-21T07:41:41;99436.66;;;17.42;66.35
77770;BME280;66961;51.482;9.160;2023-05-21T07:44:06;99433.13;;;17.48;66.82
77770;BME280;66961;51.482;9.160;2023-05-21T07:46:32;99436.84;;;17.47;66.53
77770;BME280;66961;51.482;9.160;2023-05-21T07:48:57;99425.91;;;17.80;65.93
77770;BME280;66961;51.482;9.160;2023-05-21T07:51:23;99428.13;;;18.15;65.43
77770;BME280;66961;51.482;9.160;2023-05-21T07:53:48;99431.28;;;18.05;65.74
77770;BME280;66961;51.482;9.160;2023-05-21T07:56:13;99430.66;;;18.28;64.30
77770;BME280;66961;51.482;9.160;2023-05-21T07:58:39;99418.00;;;18.17;64.00
77770;BME280;66961;51.482;9.160;2023-05-21T08:01:04;99422.81;;;18.27;64.79
77770;BME280;66961;51.482;9.160;2023-05-21T08:03:29;99421.00;;;18.02;65.00
77770;BME280;66961;51.482;9.160;2023-05-21T08:05:55;99407.03;;;17.94;66.14
77770;BME280;66961;51.482;9.160;2023-05-21T08:08:21;99420.41;;;18.00;65.18
77770;BME280;66961;51.482;9.160;2023-05-21T08:10:46;99413.53;;;18.29;65.41
77770;BME280;66961;51.482;9.160;2023-05-21T08:13:13;99413.31;;;18.49;63.93
77770;BME280;66961;51.482;9.160;2023-05-21T08:15:38;99419.66;;;18.55;65.58
77770;BME280;66961;51.482;9.160;2023-05-21T08:18:03;99427.38;;;18.88;65.12
77770;BME280;66961;51.482;9.160;2023-05-21T08:20:29;99412.69;;;18.72;63.46
77770;BME280;66961;51.482;9.160;2023-05-21T08:22:54;99416.69;;;18.81;63.38
77770;BME280;66961;51.482;9.160;2023-05-21T08:25:19;99415.34;;;18.90;62.68
77770;BME280;66961;51.482;9.160;2023-05-21T08:27:44;99424.31;;;19.02;63.71
77770;BME280;66961;51.482;9.160;2023-05-21T08:30:10;99413.63;;;19.14;61.95
77770;BME280;66961;51.482;9.160;2023-05-21T08:32:36;99422.13;;;19.11;60.98
77770;BME280;66961;51.482;9.160;2023-05-21T08:35:01;99418.50;;;18.87;62.82
77770;BME280;66961;51.482;9.160;2023-05-21T08:37:26;99414.16;;;19.04;63.15
77770;BME280;66961;51.482;9.160;2023-05-21T08:39:52;99415.50;;;18.95;62.58
77770;BME280;66961;51.482;9.160;2023-05-21T08:42:38;99422.03;;;18.69;62.83
77770;BME280;66961;51.482;9.160;2023-05-21T08:45:04;99427.00;;;18.84;64.35
77770;BME280;66961;51.482;9.160;2023-05-21T08:47:34;99418.28;;;18.89;63.93
77770;BME280;66961;51.482;9.160;2023-05-21T08:49:59;99422.09;;;18.63;64.93
77770;BME280;66961;51.482;9.160;2023-05-21T08:52:26;99415.13;;;18.73;64.64
77770;BME280;66961;51.482;9.160;2023-05-21T08:54:52;99416.78;;;18.74;64.46
77770;BME280;66961;51.482;9.160;2023-05-21T08:57:17;99398.56;;;18.95;64.94
77770;BME280;66961;51.482;9.160;2023-05-21T08:59:44;99407.16;;;19.03;64.38
77770;BME280;66961;51.482;9.160;2023-05-21T09:02:11;99407.50;;;19.07;63.93
77770;BME280;66961;51.482;9.160;2023-05-21T09:04:40;99407.44;;;19.25;63.90
77770;BME280;66961;51.482;9.160;2023-05-21T09:07:09;99408.06;;;19.57;61.94
77770;BME280;66961;51.482;9.160;2023-05-21T09:09:46;99399.59;;;19.72;62.18
77770;BME280;66961;51.482;9.160;2023-05-21T09:12:13;99400.38;;;19.61;61.26
77770;BME280;66961;51.482;9.160;2023-05-21T09:14:39;99395.63;;;19.98;60.05
77770;BME280;66961;51.482;9.160;2023-05-21T09:17:04;99400.19;;;20.32;60.35
77770;BME280;66961;51.482;9.160;2023-05-21T09:19:30;99403.09;;;20.77;57.86
77770;BME280;66961;51.482;9.160;2023-05-21T09:22:00;99401.94;;;20.73;57.62
77770;BME280;66961;51.482;9.160;2023-05-21T09:24:29;99406.88;;;21.05;58.58
77770;BME280;66961;51.482;9.160;2023-05-21T09:26:56;99415.88;;;21.22;57.72
77770;BME280;66961;51.482;9.160;2023-05-21T09:29:22;99411.97;;;21.30;58.86
77770;BME280;66961;51.482;9.160;2023-05-21T09:31:47;99405.56;;;21.64;55.69
77770;BME280;66961;51.482;9.160;2023-05-21T09:34:13;99405.56;;;21.64;57.31
77770;BME280;66961;51.482;9.160;2023-05-21T09:36:39;99405.06;;;21.84;57.25
77770;BME280;66961;51.482;9.160;2023-05-21T09:39:04;99404.59;;;21.87;55.16
77770;BME280;66961;51.482;9.160;2023-05-21T09:41:31;99402.38;;;21.84;53.88
77770;BME280;66961;51.482;9.160;2023-05-21T09:44:00;99407.22;;;22.32;55.61
77770;BME280;66961;51.482;9.160;2023-05-21T09:46:26;99409.72;;;22.39;54.79
77770;BME280;66961;51.482;9.160;2023-05-21T09:48:51;99406.81;;;22.24;54.90
77770;BME280;66961;51.482;9.160;2023-05-21T09:51:18;99404.69;;;22.64;54.89
77770;BME280;66961;51.482;9.160;2023-05-21T09:53:51;99410.09;;;23.08;52.59
77770;BME280;66961;51.482;9.160;2023-05-21T09:56:21;99400.81;;;22.99;52.84
77770;BME280;66961;51.482;9.160;2023-05-21T09:58:47;99395.53;;;23.09;54.12
77770;BME280;66961;51.482;9.160;2023-05-21T10:01:12;99395.59;;;23.14;52.90
77770;BME280;66961;51.482;9.160;2023-05-21T10:03:38;99392.69;;;22.77;54.25
77770;BME280;66961;51.482;9.160;2023-05-21T10:06:06;99391.16;;;22.81;53.61
77770;BME280;66961;51.482;9.160;2023-05-21T10:08:34;99382.38;;;23.18;54.56
77770;BME280;66961;51.482;9.160;2023-05-21T10:11:00;99385.19;;;22.79;53.05
77770;BME280;66961;51.482;9.160;2023-05-21T10:13:26;99380.91;;;22.83;52.94
77770;BME280;66961;51.482;9.160;2023-05-21T10:15:57;99374.56;;;23.48;51.09
77770;BME280;66961;51.482;9.160;2023-05-21T10:18:23;99383.78;;;23.79;49.62
77770;BME280;66961;51.482;9.160;2023-05-21T10:20:49;99377.59;;;23.84;50.59
77770;BME280;66961;51.482;9.160;2023-05-21T10:23:17;99368.59;;;23.73;50.73
77770;BME280;66961;51.482;9.160;2023-05-21T10:25:43;99367.38;;;23.91;50.21
77770;BME280;66961;51.482;9.160;2023-05-21T10:28:09;99371.56;;;23.71;50.34
77770;BME280;66961;51.482;9.160;2023-05-21T10:30:35;99360.72;;;24.51;48.35
77770;BME280;66961;51.482;9.160;2023-05-21T10:33:03;99367.19;;;24.45;48.10
77770;BME280;66961;51.482;9.160;2023-05-21T10:35:28;99362.44;;;24.72;47.58
77770;BME280;66961;51.482;9.160;2023-05-21T10:37:55;99361.94;;;24.80;48.69
77770;BME280;66961;51.482;9.160;2023-05-21T10:40:21;99365.00;;;25.04;46.29
77770;BME280;66961;51.482;9.160;2023-05-21T10:45:22;99355.59;;;25.37;46.52
77770;BME280;66961;51.482;9.160;2023-05-21T10:56:24;99340.34;;;25.16;47.07
77770;BME280;66961;51.482;9.160;2023-05-21T10:59:06;99343.88;;;25.11;46.62
77770;BME280;66961;51.482;9.160;2023-05-21T11:01:36;99352.25;;;24.99;47.19
77770;BME280;66961;51.482;9.160;2023-05-21T11:04:05;99342.25;;;25.15;46.09
77770;BME280;66961;51.482;9.160;2023-05-21T11:06:30;99343.06;;;25.16;47.74
77770;BME280;66961;51.482;9.160;2023-05-21T11:08:56;99339.81;;;25.19;47.08
77770;BME280;66961;51.482;9.160;2023-05-21T11:11:44;99339.31;;;25.52;46.03
77770;BME280;66961;51.482;9.160;2023-05-21T11:16:54;99341.78;;;25.64;46.17
77770;BME280;66961;51.482;9.160;2023-05-21T11:19:19;99344.50;;;25.84;44.95
77770;BME280;66961;51.482;9.160;2023-05-21T11:21:51;99337.69;;;25.56;43.54
77770;BME280;66961;51.482;9.160;2023-05-21T11:24:19;99342.88;;;25.78;44.65
77770;BME280;66961;51.482;9.160;2023-05-21T11:29:13;99328.44;;;25.57;43.58
77770;BME280;66961;51.482;9.160;2023-05-21T11:31:45;99331.75;;;25.64;43.48
77770;BME280;66961;51.482;9.160;2023-05-21T11:34:18;99338.25;;;25.94;45.44
77770;BME280;66961;51.482;9.160;2023-05-21T11:36:45;99341.44;;;26.36;43.92
77770;BME280;66961;51.482;9.160;2023-05-21T11:39:15;99327.47;;;26.58;42.78
77770;BME280;66961;51.482;9.160;2023-05-21T11:41:56;99326.34;;;26.69;43.48
77770;BME280;66961;51.482;9.160;2023-05-21T11:47:04;99310.50;;;26.87;41.77
77770;BME280;66961;51.482;9.160;2023-05-21T11:49:30;99330.31;;;26.97;42.51
77770;BME280;66961;51.482;9.160;2023-05-21T11:51:56;99329.06;;;27.24;41.52
77770;BME280;66961;51.482;9.160;2023-05-21T11:54:22;99322.16;;;27.71;40.21
77770;BME280;66961;51.482;9.160;2023-05-21T11:56:48;99332.06;;;27.90;41.26
77770;BME280;66961;51.482;9.160;2023-05-21T11:59:14;99328.16;;;27.73;40.90
77770;BME280;66961;51.482;9.160;2023-05-21T12:01:41;99322.28;;;27.89;41.54
77770;BME280;66961;51.482;9.160;2023-05-21T12:04:06;99316.44;;;27.38;40.54
77770;BME280;66961;51.482;9.160;2023-05-21T12:06:32;99325.25;;;27.25;41.34
77770;BME280;66961;51.482;9.160;2023-05-21T12:08:57;99325.75;;;27.66;40.11
77770;BME280;66961;51.482;9.160;2023-05-21T12:11:22;99327.41;;;27.96;41.38
77770;BME280;66961;51.482;9.160;2023-05-21T12:13:47;99325.13;;;27.74;40.44
77770;BME280;66961;51.482;9.160;2023-05-21T12:16:13;99319.97;;;27.73;40.92
77770;BME280;66961;51.482;9.160;2023-05-21T12:18:39;99325.31;;;28.41;39.51
77770;BME280;66961;51.482;9.160;2023-05-21T12:21:05;99324.69;;;28.67;39.85
77770;BME280;66961;51.482;9.160;2023-05-21T12:23:30;99320.66;;;28.41;38.96
77770;BME280;66961;51.482;9.160;2023-05-21T12:25:55;99318.50;;;28.81;40.16
77770;BME280;66961;51.482;9.160;2023-05-21T12:28:21;99315.63;;;28.72;39.87
77770;BME280;66961;51.482;9.160;2023-05-21T12:30:47;99306.91;;;28.70;39.74
77770;BME280;66961;51.482;9.160;2023-05-21T12:33:12;99314.50;;;28.73;40.05
77770;BME280;66961;51.482;9.160;2023-05-21T12:35:37;99310.00;;;28.63;38.29
77770;BME280;66961;51.482;9.160;2023-05-21T12:38:02;99312.50;;;28.60;39.63
77770;BME280;66961;51.482;9.160;2023-05-21T12:40:37;99305.63;;;27.62;40.77
77770;BME280;66961;51.482;9.160;2023-05-21T12:43:03;99311.72;;;27.83;40.05
77770;BME280;66961;51.482;9.160;2023-05-21T12:45:32;99306.56;;;28.58;40.51
77770;BME280;66961;51.482;9.160;2023-05-21T12:48:01;99300.34;;;28.52;38.29
77770;BME280;66961;51.482;9.160;2023-05-21T12:50:26;99299.47;;;28.76;37.35
77770;BME280;66961;51.482;9.160;2023-05-21T12:52:55;99301.09;;;29.01;38.19
77770;BME280;66961;51.482;9.160;2023-05-21T12:55:23;99303.38;;;28.51;37.09
77770;BME280;66961;51.482;9.160;2023-05-21T12:57:48;99300.69;;;29.45;36.23
77770;BME280;66961;51.482;9.160;2023-05-21T13:00:13;99296.13;;;29.86;34.70
77770;BME280;66961;51.482;9.160;2023-05-21T13:02:42;99305.06;;;29.92;35.08
77770;BME280;66961;51.482;9.160;2023-05-21T13:05:09;99298.91;;;29.68;35.38
77770;BME280;66961;51.482;9.160;2023-05-21T13:07:36;99299.03;;;29.62;35.71
77770;BME280;66961;51.482;9.160;2023-05-21T13:10:03;99303.50;;;29.72;36.17
77770;BME280;66961;51.482;9.160;2023-05-21T13:12:29;99282.97;;;29.23;37.02
77770;BME280;66961;51.482;9.160;2023-05-21T13:14:56;99294.59;;;28.96;37.10
77770;BME280;66961;51.482;9.160;2023-05-21T13:17:23;99290.50;;;29.96;36.49